UAE1015 HAAB-OMDB
Flight info
| Callsign | UAE1015 |
|---|---|
| Flight time | N/A |
| Altitude | 36000 |
| Route | MIWAS2A MIWAS UT667 DWA UW885 HARGA UB404 DEMGO B404 RIGAM B400 DAXAM Y414 DEDSO R401 PEDOG Q308 KIPOK Q568 IMPED |
| Aircraft | B77W/H-SDE1E2E3FGHIJ2J3J4J5M1RWXY/LB1D1 |
Departure
| Time | 2026-05-04 13:19 |
|---|---|
| Airport | Addis Ababa Bole International Airport (HAAB) |
Arrival
| Time | N/A |
|---|---|
| Airport | Dubai International Airport (OMDB) |
| Time | Latitude | Longitude | Altitude | Speed | Heading |
|---|---|---|---|---|---|
| 2026-05-04 12:05 | 8.98250 | 38.79725 | 7621 ft | 0 kts | 346° |
| 2026-05-04 13:03 | 8.98241 | 38.79728 | 7621 ft | 3 kts | 346° |
| 2026-05-04 13:03 | 8.98224 | 38.79732 | 7621 ft | 2 kts | 346° |
| 2026-05-04 13:03 | 8.98208 | 38.79736 | 7621 ft | 3 kts | 329° |
| 2026-05-04 13:03 | 8.98197 | 38.79744 | 7621 ft | 3 kts | 299° |
| 2026-05-04 13:04 | 8.98193 | 38.79754 | 7621 ft | 3 kts | 264° |
| 2026-05-04 13:04 | 8.98197 | 38.79772 | 7621 ft | 3 kts | 249° |
| 2026-05-04 13:04 | 8.98203 | 38.79789 | 7621 ft | 2 kts | 251° |
| 2026-05-04 13:04 | 8.98204 | 38.79792 | 7621 ft | 2 kts | 252° |
| 2026-05-04 13:07 | 8.98201 | 38.79783 | 7621 ft | 3 kts | 252° |
| 2026-05-04 13:08 | 8.98191 | 38.79750 | 7621 ft | 7 kts | 252° |
| 2026-05-04 13:08 | 8.98173 | 38.79694 | 7621 ft | 10 kts | 252° |
| 2026-05-04 13:08 | 8.98149 | 38.79618 | 7622 ft | 13 kts | 252° |
| 2026-05-04 13:08 | 8.98118 | 38.79520 | 7622 ft | 16 kts | 252° |
| 2026-05-04 13:09 | 8.98087 | 38.79405 | 7623 ft | 18 kts | 256° |
| 2026-05-04 13:09 | 8.98054 | 38.79271 | 7624 ft | 21 kts | 256° |
| 2026-05-04 13:09 | 8.98014 | 38.79123 | 7625 ft | 23 kts | 254° |
| 2026-05-04 13:09 | 8.97969 | 38.78966 | 7626 ft | 24 kts | 253° |
| 2026-05-04 13:10 | 8.97920 | 38.78812 | 7630 ft | 17 kts | 252° |
| 2026-05-04 13:10 | 8.97850 | 38.78740 | 7627 ft | 15 kts | 195° |
| 2026-05-04 13:10 | 8.97778 | 38.78663 | 7628 ft | 17 kts | 248° |
| 2026-05-04 13:10 | 8.97771 | 38.78639 | 7628 ft | 0 kts | 253° |
| 2026-05-04 13:13 | 8.97768 | 38.78631 | 7628 ft | 3 kts | 255° |
| 2026-05-04 13:13 | 8.97761 | 38.78602 | 7630 ft | 6 kts | 255° |
| 2026-05-04 13:14 | 8.97751 | 38.78552 | 7629 ft | 9 kts | 269° |
| 2026-05-04 13:14 | 8.97764 | 38.78484 | 7629 ft | 11 kts | 275° |
| 2026-05-04 13:14 | 8.97750 | 38.78396 | 7629 ft | 14 kts | 252° |
| 2026-05-04 13:14 | 8.97721 | 38.78299 | 7630 ft | 14 kts | 249° |
| 2026-05-04 13:15 | 8.97665 | 38.78215 | 7630 ft | 15 kts | 211° |
| 2026-05-04 13:15 | 8.97561 | 38.78222 | 7631 ft | 15 kts | 166° |
| 2026-05-04 13:15 | 8.97456 | 38.78247 | 7631 ft | 15 kts | 160° |
| 2026-05-04 13:15 | 8.97348 | 38.78291 | 7630 ft | 17 kts | 147° |
| 2026-05-04 13:16 | 8.97262 | 38.78341 | 7630 ft | 8 kts | 150° |
| 2026-05-04 13:16 | 8.97244 | 38.78394 | 7629 ft | 9 kts | 75° |
| 2026-05-04 13:16 | 8.97264 | 38.78464 | 7630 ft | 12 kts | 73° |
| 2026-05-04 13:16 | 8.97286 | 38.78538 | 7630 ft | 0 kts | 73° |
| 2026-05-04 13:18 | 8.97286 | 38.78540 | 7630 ft | 2 kts | 73° |
| 2026-05-04 13:18 | 8.97342 | 38.78727 | 7628 ft | 64 kts | 73° |
| 2026-05-04 13:18 | 8.97545 | 38.79411 | 7622 ft | 137 kts | 73° |
| 2026-05-04 13:19 | 8.97877 | 38.80556 | 7615 ft | 200 kts | 73° |
| 2026-05-04 13:19 | 8.98286 | 38.82012 | 7948 ft | 217 kts | 75° |
| 2026-05-04 13:19 | 8.98606 | 38.83330 | 9432 ft | 174 kts | 77° |
| 2026-05-04 13:19 | 8.98918 | 38.84504 | 9762 ft | 179 kts | 72° |
| 2026-05-04 13:20 | 8.99288 | 38.85730 | 9786 ft | 183 kts | 72° |
| 2026-05-04 13:20 | 8.99672 | 38.86987 | 9871 ft | 190 kts | 71° |
| 2026-05-04 13:20 | 9.00065 | 38.88277 | 9969 ft | 197 kts | 72° |
| 2026-05-04 13:20 | 9.00474 | 38.89641 | 10075 ft | 208 kts | 72° |
| 2026-05-04 13:21 | 9.00906 | 38.91086 | 10198 ft | 221 kts | 72° |
| 2026-05-04 13:21 | 9.01362 | 38.92621 | 10333 ft | 236 kts | 72° |
| 2026-05-04 13:21 | 9.01851 | 38.94272 | 10471 ft | 252 kts | 72° |
| 2026-05-04 13:21 | 9.02360 | 38.96011 | 10646 ft | 268 kts | 72° |
| 2026-05-04 13:22 | 9.02902 | 38.97863 | 11013 ft | 277 kts | 72° |
| 2026-05-04 13:22 | 9.03457 | 38.99757 | 11514 ft | 282 kts | 73° |
| 2026-05-04 13:22 | 9.04012 | 39.01650 | 12123 ft | 284 kts | 72° |
| 2026-05-04 13:22 | 9.04579 | 39.03591 | 12717 ft | 292 kts | 73° |
| 2026-05-04 13:23 | 9.05157 | 39.05652 | 12914 ft | 316 kts | 74° |
| 2026-05-04 13:23 | 9.05738 | 39.07885 | 13087 ft | 339 kts | 75° |
| 2026-05-04 13:23 | 9.06335 | 39.10243 | 13265 ft | 360 kts | 75° |
| 2026-05-04 13:23 | 9.06973 | 39.12774 | 13562 ft | 377 kts | 75° |
| 2026-05-04 13:24 | 9.07633 | 39.15380 | 14063 ft | 387 kts | 75° |
| 2026-05-04 13:24 | 9.08307 | 39.18045 | 14703 ft | 393 kts | 75° |
| 2026-05-04 13:24 | 9.08993 | 39.20747 | 15417 ft | 397 kts | 75° |
| 2026-05-04 13:25 | 9.10380 | 39.26183 | 16691 ft | 406 kts | 75° |
| 2026-05-04 13:25 | 9.11090 | 39.28971 | 17269 ft | 411 kts | 75° |
| 2026-05-04 13:25 | 9.11813 | 39.31802 | 17881 ft | 416 kts | 75° |
| 2026-05-04 13:25 | 9.12543 | 39.34654 | 18475 ft | 420 kts | 76° |
| 2026-05-04 13:26 | 9.13268 | 39.37493 | 19034 ft | 424 kts | 75° |
| 2026-05-04 13:26 | 9.14009 | 39.40398 | 19617 ft | 429 kts | 76° |
| 2026-05-04 13:26 | 9.14760 | 39.43345 | 20132 ft | 434 kts | 75° |
| 2026-05-04 13:26 | 9.15520 | 39.46324 | 20642 ft | 438 kts | 75° |
| 2026-05-04 13:27 | 9.16286 | 39.49329 | 21168 ft | 442 kts | 75° |
| 2026-05-04 13:27 | 9.17059 | 39.52362 | 21646 ft | 446 kts | 75° |
| 2026-05-04 13:27 | 9.17838 | 39.55420 | 22085 ft | 451 kts | 75° |
| 2026-05-04 13:27 | 9.18620 | 39.58489 | 22536 ft | 455 kts | 75° |
| 2026-05-04 13:28 | 9.19408 | 39.61586 | 22999 ft | 458 kts | 75° |
| 2026-05-04 13:28 | 9.20208 | 39.64727 | 23434 ft | 461 kts | 75° |
| 2026-05-04 13:28 | 9.21012 | 39.67887 | 23827 ft | 465 kts | 75° |
| 2026-05-04 13:28 | 9.21824 | 39.71078 | 24194 ft | 470 kts | 75° |
| 2026-05-04 13:29 | 9.22642 | 39.74299 | 24576 ft | 473 kts | 75° |
| 2026-05-04 13:29 | 9.23453 | 39.77489 | 25007 ft | 475 kts | 75° |
| 2026-05-04 13:29 | 9.24283 | 39.80758 | 25422 ft | 477 kts | 75° |
| 2026-05-04 13:29 | 9.25112 | 39.84023 | 25805 ft | 480 kts | 75° |
| 2026-05-04 13:30 | 9.25946 | 39.87310 | 26180 ft | 482 kts | 75° |
| 2026-05-04 13:30 | 9.26776 | 39.90581 | 26542 ft | 485 kts | 75° |
| 2026-05-04 13:30 | 9.27612 | 39.93876 | 26893 ft | 487 kts | 75° |
| 2026-05-04 13:30 | 9.28436 | 39.97127 | 27232 ft | 489 kts | 75° |
| 2026-05-04 13:31 | 9.29286 | 40.00481 | 27566 ft | 492 kts | 75° |
| 2026-05-04 13:31 | 9.30139 | 40.03849 | 27876 ft | 494 kts | 75° |
| 2026-05-04 13:31 | 9.30995 | 40.07230 | 28169 ft | 497 kts | 75° |
| 2026-05-04 13:31 | 9.31856 | 40.10632 | 28476 ft | 499 kts | 75° |
| 2026-05-04 13:32 | 9.32719 | 40.14049 | 28777 ft | 501 kts | 75° |
| 2026-05-04 13:32 | 9.33558 | 40.17369 | 29046 ft | 503 kts | 75° |
| 2026-05-04 13:32 | 9.34406 | 40.20725 | 29301 ft | 506 kts | 75° |
| 2026-05-04 13:32 | 9.35284 | 40.24203 | 29540 ft | 508 kts | 75° |
| 2026-05-04 13:33 | 9.36164 | 40.27685 | 29794 ft | 510 kts | 75° |
| 2026-05-04 13:33 | 9.37044 | 40.31170 | 30050 ft | 511 kts | 75° |
| 2026-05-04 13:33 | 9.37906 | 40.34588 | 30305 ft | 512 kts | 75° |
| 2026-05-04 13:33 | 9.38788 | 40.38086 | 30641 ft | 511 kts | 75° |
| 2026-05-04 13:34 | 9.39667 | 40.41578 | 31073 ft | 508 kts | 75° |
| 2026-05-04 13:34 | 9.40477 | 40.45012 | 31691 ft | 501 kts | 77° |
| 2026-05-04 13:34 | 9.41139 | 40.48468 | 32291 ft | 495 kts | 79° |
| 2026-05-04 13:34 | 9.41714 | 40.51899 | 32894 ft | 489 kts | 80° |
| 2026-05-04 13:35 | 9.42250 | 40.55250 | 33489 ft | 483 kts | 80° |
| 2026-05-04 13:35 | 9.43330 | 40.61895 | 34683 ft | 471 kts | 80° |
| 2026-05-04 13:35 | 9.43878 | 40.65145 | 35185 ft | 467 kts | 80° |
| 2026-05-04 13:36 | 9.44432 | 40.68376 | 35211 ft | 474 kts | 79° |
| 2026-05-04 13:36 | 9.45587 | 40.75023 | 35231 ft | 486 kts | 79° |
| 2026-05-04 13:37 | 9.46780 | 40.81867 | 35224 ft | 497 kts | 79° |
| 2026-05-04 13:37 | 9.47980 | 40.88780 | 35215 ft | 502 kts | 79° |
| 2026-05-04 13:38 | 9.49188 | 40.95759 | 35202 ft | 502 kts | 79° |
| 2026-05-04 13:38 | 9.50390 | 41.02718 | 35194 ft | 500 kts | 79° |
| 2026-05-04 13:39 | 9.51588 | 41.09655 | 35187 ft | 497 kts | 79° |
| 2026-05-04 13:39 | 9.52768 | 41.16497 | 35179 ft | 495 kts | 79° |
| 2026-05-04 13:40 | 9.53948 | 41.23354 | 35173 ft | 493 kts | 79° |
| 2026-05-04 13:40 | 9.55125 | 41.30191 | 35168 ft | 492 kts | 79° |
| 2026-05-04 13:41 | 9.56300 | 41.37023 | 35166 ft | 492 kts | 79° |
| 2026-05-04 13:41 | 9.57476 | 41.43881 | 35162 ft | 493 kts | 79° |
| 2026-05-04 13:42 | 9.59233 | 41.54136 | 35149 ft | 495 kts | 79° |
| 2026-05-04 13:42 | 9.60414 | 41.61035 | 35144 ft | 496 kts | 79° |
| 2026-05-04 13:43 | 9.61594 | 41.67941 | 35133 ft | 496 kts | 79° |
| 2026-05-04 13:43 | 9.62764 | 41.74798 | 35129 ft | 496 kts | 79° |
| 2026-05-04 13:44 | 9.63927 | 41.81712 | 35120 ft | 497 kts | 82° |
| 2026-05-04 13:44 | 9.64264 | 41.88709 | 35109 ft | 497 kts | 92° |
| 2026-05-04 13:45 | 9.63826 | 41.95660 | 35112 ft | 497 kts | 93° |
| 2026-05-04 13:45 | 9.63364 | 42.02654 | 35101 ft | 497 kts | 93° |
| 2026-05-04 13:46 | 9.62937 | 42.09650 | 35090 ft | 497 kts | 92° |
| 2026-05-04 13:46 | 9.62532 | 42.16641 | 35088 ft | 497 kts | 92° |
| 2026-05-04 13:47 | 9.62130 | 42.23644 | 35085 ft | 497 kts | 92° |
| 2026-05-04 13:47 | 9.61724 | 42.30593 | 35072 ft | 497 kts | 92° |
| 2026-05-04 13:48 | 9.61380 | 42.36420 | 35072 ft | 497 kts | 92° |
| 2026-05-04 13:48 | 9.60967 | 42.43414 | 35064 ft | 497 kts | 92° |
| 2026-05-04 13:49 | 9.60487 | 42.51555 | 35059 ft | 497 kts | 92° |
| 2026-05-04 13:49 | 9.60140 | 42.57406 | 35045 ft | 497 kts | 92° |
| 2026-05-04 13:50 | 9.59727 | 42.64354 | 35024 ft | 497 kts | 92° |
| 2026-05-04 13:50 | 9.59309 | 42.71355 | 35008 ft | 496 kts | 92° |
| 2026-05-04 13:51 | 9.58890 | 42.78336 | 35000 ft | 495 kts | 92° |
| 2026-05-04 13:51 | 9.58468 | 42.85309 | 34996 ft | 495 kts | 92° |
| 2026-05-04 13:52 | 9.57843 | 42.95728 | 34982 ft | 495 kts | 92° |
| 2026-05-04 13:53 | 9.57421 | 43.02691 | 34983 ft | 495 kts | 92° |
| 2026-05-04 13:53 | 9.56997 | 43.09645 | 34974 ft | 495 kts | 92° |
| 2026-05-04 13:54 | 9.56365 | 43.20038 | 34972 ft | 494 kts | 92° |
| 2026-05-04 13:55 | 9.55722 | 43.30506 | 34963 ft | 494 kts | 92° |
| 2026-05-04 13:55 | 9.55083 | 43.40889 | 34957 ft | 494 kts | 92° |
| 2026-05-04 13:56 | 9.54764 | 43.47849 | 34955 ft | 494 kts | 91° |
| 2026-05-04 13:57 | 9.54385 | 43.58297 | 34948 ft | 494 kts | 91° |
| 2026-05-04 13:58 | 9.53829 | 43.72176 | 34933 ft | 494 kts | 91° |
| 2026-05-04 13:58 | 9.53400 | 43.82610 | 34935 ft | 494 kts | 91° |
| 2026-05-04 13:59 | 9.53114 | 43.89577 | 34931 ft | 494 kts | 91° |
| 2026-05-04 14:00 | 9.52686 | 43.99957 | 34927 ft | 494 kts | 91° |
| 2026-05-04 14:00 | 9.52719 | 44.06926 | 34919 ft | 492 kts | 80° |
| 2026-05-04 14:00 | 9.53463 | 44.10263 | 34929 ft | 491 kts | 72° |
| 2026-05-04 14:01 | 9.56333 | 44.16540 | 34928 ft | 489 kts | 59° |
| 2026-05-04 14:02 | 9.61583 | 44.25395 | 34912 ft | 490 kts | 58° |
| 2026-05-04 14:02 | 9.65053 | 44.31316 | 34906 ft | 491 kts | 59° |
| 2026-05-04 14:03 | 9.68516 | 44.37312 | 34908 ft | 491 kts | 59° |
| 2026-05-04 14:03 | 9.71928 | 44.43246 | 34904 ft | 491 kts | 59° |
| 2026-05-04 14:04 | 9.77097 | 44.52242 | 34898 ft | 491 kts | 59° |
| 2026-05-04 14:04 | 9.80509 | 44.58179 | 34894 ft | 491 kts | 59° |
| 2026-05-04 14:05 | 9.85670 | 44.67162 | 34890 ft | 490 kts | 59° |
| 2026-05-04 14:06 | 9.89096 | 44.73129 | 34887 ft | 490 kts | 59° |
| 2026-05-04 14:06 | 9.92523 | 44.79101 | 34880 ft | 490 kts | 59° |
| 2026-05-04 14:07 | 9.95960 | 44.85093 | 34879 ft | 490 kts | 59° |
| 2026-05-04 14:07 | 9.99372 | 44.91045 | 34878 ft | 490 kts | 59° |
| 2026-05-04 14:08 | 10.02807 | 44.97040 | 34873 ft | 490 kts | 59° |
| 2026-05-04 14:08 | 10.06227 | 45.03018 | 34870 ft | 490 kts | 59° |
| 2026-05-04 14:09 | 10.11357 | 45.11981 | 34855 ft | 491 kts | 59° |
| 2026-05-04 14:10 | 10.16496 | 45.20966 | 34851 ft | 491 kts | 59° |
| 2026-05-04 14:10 | 10.19901 | 45.26928 | 34845 ft | 490 kts | 59° |
| 2026-05-04 14:11 | 10.23310 | 45.32899 | 34841 ft | 490 kts | 60° |
| 2026-05-04 14:11 | 10.28449 | 45.41903 | 34841 ft | 490 kts | 60° |
| 2026-05-04 14:12 | 10.31859 | 45.47879 | 34840 ft | 489 kts | 60° |
| 2026-05-04 14:13 | 10.36960 | 45.56829 | 34833 ft | 489 kts | 60° |
| 2026-05-04 14:13 | 10.40375 | 45.62823 | 34831 ft | 489 kts | 60° |
| 2026-05-04 14:14 | 10.43775 | 45.68795 | 34834 ft | 489 kts | 60° |
| 2026-05-04 14:14 | 10.48897 | 45.77802 | 34832 ft | 489 kts | 60° |
| 2026-05-04 14:15 | 10.55680 | 45.89737 | 34830 ft | 489 kts | 60° |
| 2026-05-04 14:16 | 10.60783 | 45.98723 | 34831 ft | 489 kts | 60° |
| 2026-05-04 14:17 | 10.65879 | 46.07707 | 34832 ft | 489 kts | 60° |
| 2026-05-04 14:18 | 10.70972 | 46.16693 | 34819 ft | 490 kts | 60° |
| 2026-05-04 14:19 | 10.77774 | 46.28709 | 34831 ft | 489 kts | 60° |
| 2026-05-04 14:19 | 10.81158 | 46.34681 | 34815 ft | 489 kts | 60° |
| 2026-05-04 14:20 | 10.84608 | 46.40667 | 34816 ft | 489 kts | 59° |
| 2026-05-04 14:20 | 10.88043 | 46.46597 | 34821 ft | 489 kts | 59° |
| 2026-05-04 14:21 | 10.93221 | 46.55566 | 34808 ft | 489 kts | 60° |
| 2026-05-04 14:21 | 10.96654 | 46.61528 | 34813 ft | 489 kts | 60° |
| 2026-05-04 14:22 | 11.00103 | 46.67522 | 34819 ft | 489 kts | 60° |
| 2026-05-04 14:22 | 11.03536 | 46.73489 | 34824 ft | 490 kts | 60° |
| 2026-05-04 14:23 | 11.08706 | 46.82482 | 34806 ft | 490 kts | 60° |
| 2026-05-04 14:24 | 11.12136 | 46.88455 | 34803 ft | 490 kts | 60° |
| 2026-05-04 14:24 | 11.15567 | 46.94429 | 34798 ft | 490 kts | 60° |
| 2026-05-04 14:25 | 11.18999 | 47.00410 | 34807 ft | 490 kts | 60° |
| 2026-05-04 14:25 | 11.24166 | 47.09424 | 34796 ft | 489 kts | 60° |
| 2026-05-04 14:26 | 11.27586 | 47.15394 | 34811 ft | 489 kts | 60° |
| 2026-05-04 14:26 | 11.31001 | 47.21360 | 34805 ft | 489 kts | 60° |
| 2026-05-04 14:27 | 11.34439 | 47.27369 | 34812 ft | 489 kts | 60° |
| 2026-05-04 14:27 | 11.37859 | 47.33350 | 34816 ft | 489 kts | 60° |
| 2026-05-04 14:28 | 11.41297 | 47.39351 | 34799 ft | 490 kts | 60° |
| 2026-05-04 14:28 | 11.44727 | 47.45336 | 34798 ft | 490 kts | 60° |
| 2026-05-04 14:29 | 11.51603 | 47.57366 | 34804 ft | 490 kts | 60° |
| 2026-05-04 14:30 | 11.55018 | 47.63346 | 34799 ft | 490 kts | 60° |
| 2026-05-04 14:31 | 11.60189 | 47.72405 | 34795 ft | 491 kts | 60° |
| 2026-05-04 14:32 | 11.67026 | 47.84395 | 34792 ft | 490 kts | 61° |
| 2026-05-04 14:32 | 11.70455 | 47.90418 | 34792 ft | 490 kts | 61° |
| 2026-05-04 14:33 | 11.73893 | 47.96455 | 34823 ft | 490 kts | 61° |
| 2026-05-04 14:33 | 11.77298 | 48.02441 | 34832 ft | 489 kts | 61° |
| 2026-05-04 14:34 | 11.80154 | 48.07462 | 34814 ft | 490 kts | 61° |
| 2026-05-04 14:34 | 11.84129 | 48.14457 | 34809 ft | 490 kts | 61° |
| 2026-05-04 14:35 | 11.86979 | 48.19476 | 34820 ft | 490 kts | 61° |
| 2026-05-04 14:35 | 11.90964 | 48.26499 | 34826 ft | 490 kts | 61° |
| 2026-05-04 14:36 | 11.93817 | 48.31529 | 34822 ft | 490 kts | 61° |
| 2026-05-04 14:36 | 11.97241 | 48.37570 | 34817 ft | 490 kts | 61° |
| 2026-05-04 14:37 | 12.00637 | 48.43566 | 34820 ft | 490 kts | 61° |
| 2026-05-04 14:37 | 12.04054 | 48.49602 | 34810 ft | 490 kts | 61° |
| 2026-05-04 14:38 | 12.07507 | 48.55630 | 34808 ft | 491 kts | 60° |
| 2026-05-04 14:38 | 12.10995 | 48.61597 | 34812 ft | 491 kts | 60° |
| 2026-05-04 14:39 | 12.14501 | 48.67597 | 34799 ft | 492 kts | 60° |
| 2026-05-04 14:39 | 12.18004 | 48.73615 | 34813 ft | 492 kts | 60° |
| 2026-05-04 14:40 | 12.23243 | 48.82632 | 34808 ft | 492 kts | 60° |
| 2026-05-04 14:40 | 12.26728 | 48.88640 | 34810 ft | 492 kts | 60° |
| 2026-05-04 14:41 | 12.30217 | 48.94655 | 34797 ft | 491 kts | 60° |
| 2026-05-04 14:42 | 12.37190 | 49.06691 | 34811 ft | 491 kts | 59° |
| 2026-05-04 14:42 | 12.40651 | 49.12671 | 34812 ft | 490 kts | 59° |
| 2026-05-04 14:43 | 12.44134 | 49.18689 | 34801 ft | 491 kts | 59° |
| 2026-05-04 14:43 | 12.47618 | 49.24714 | 34816 ft | 491 kts | 59° |
| 2026-05-04 14:44 | 12.51083 | 49.30714 | 34808 ft | 491 kts | 59° |
| 2026-05-04 14:44 | 12.54560 | 49.36735 | 34808 ft | 492 kts | 59° |
| 2026-05-04 14:45 | 12.58042 | 49.42774 | 34819 ft | 491 kts | 59° |
| 2026-05-04 14:45 | 12.61495 | 49.48763 | 34812 ft | 491 kts | 59° |
| 2026-05-04 14:46 | 12.64970 | 49.54793 | 34818 ft | 491 kts | 59° |
| 2026-05-04 14:46 | 12.68454 | 49.60841 | 34807 ft | 491 kts | 59° |
| 2026-05-04 14:47 | 12.71906 | 49.66840 | 34810 ft | 491 kts | 59° |
| 2026-05-04 14:47 | 12.75369 | 49.72863 | 34795 ft | 492 kts | 59° |
| 2026-05-04 14:48 | 12.78850 | 49.78922 | 34796 ft | 492 kts | 59° |
| 2026-05-04 14:48 | 12.82307 | 49.84943 | 34797 ft | 492 kts | 59° |
| 2026-05-04 14:49 | 12.85778 | 49.90989 | 34794 ft | 492 kts | 59° |
| 2026-05-04 14:49 | 12.89250 | 49.97040 | 34793 ft | 492 kts | 59° |
| 2026-05-04 14:50 | 12.92702 | 50.03064 | 34799 ft | 492 kts | 59° |
| 2026-05-04 14:50 | 12.96175 | 50.09129 | 34792 ft | 492 kts | 59° |
| 2026-05-04 14:51 | 12.99639 | 50.15183 | 34790 ft | 492 kts | 59° |
| 2026-05-04 14:51 | 13.03098 | 50.21230 | 34788 ft | 491 kts | 59° |
| 2026-05-04 14:52 | 13.06533 | 50.27240 | 34789 ft | 491 kts | 59° |
| 2026-05-04 14:52 | 13.09992 | 50.33296 | 34795 ft | 491 kts | 59° |
| 2026-05-04 14:53 | 13.13451 | 50.39357 | 34812 ft | 491 kts | 59° |
| 2026-05-04 14:53 | 13.16884 | 50.45381 | 34809 ft | 492 kts | 59° |
| 2026-05-04 14:54 | 13.20352 | 50.51463 | 34800 ft | 492 kts | 59° |
| 2026-05-04 14:54 | 13.23785 | 50.57509 | 34810 ft | 493 kts | 60° |
| 2026-05-04 14:55 | 13.27234 | 50.63600 | 34813 ft | 492 kts | 60° |
| 2026-05-04 14:55 | 13.30680 | 50.69687 | 34810 ft | 492 kts | 59° |
| 2026-05-04 14:56 | 13.34107 | 50.75742 | 34811 ft | 492 kts | 60° |
| 2026-05-04 14:56 | 13.37546 | 50.81828 | 34799 ft | 491 kts | 60° |
| 2026-05-04 14:57 | 13.40972 | 50.87895 | 34810 ft | 491 kts | 60° |
| 2026-05-04 14:57 | 13.44384 | 50.93939 | 34802 ft | 491 kts | 60° |
| 2026-05-04 14:58 | 13.47818 | 51.00025 | 34810 ft | 491 kts | 60° |
| 2026-05-04 14:58 | 13.51245 | 51.06104 | 34810 ft | 491 kts | 60° |
| 2026-05-04 14:59 | 13.54670 | 51.12185 | 34811 ft | 491 kts | 60° |
| 2026-05-04 15:00 | 13.59772 | 51.21251 | 34813 ft | 491 kts | 60° |
| 2026-05-04 15:00 | 13.63198 | 51.27345 | 34814 ft | 491 kts | 60° |
| 2026-05-04 15:01 | 13.68297 | 51.36419 | 34815 ft | 490 kts | 60° |
| 2026-05-04 15:01 | 13.71711 | 51.42503 | 34828 ft | 490 kts | 60° |
| 2026-05-04 15:02 | 13.75108 | 51.48549 | 34826 ft | 489 kts | 59° |
| 2026-05-04 15:02 | 13.78931 | 51.54334 | 34807 ft | 488 kts | 48° |
| 2026-05-04 15:03 | 13.83923 | 51.59033 | 34807 ft | 488 kts | 36° |
| 2026-05-04 15:03 | 13.89772 | 51.62605 | 34821 ft | 488 kts | 25° |
| 2026-05-04 15:04 | 13.96175 | 51.64870 | 34817 ft | 489 kts | 13° |
| 2026-05-04 15:04 | 14.02884 | 51.65755 | 34807 ft | 490 kts | 1° |
| 2026-05-04 15:05 | 14.09697 | 51.65391 | 34813 ft | 490 kts | 355° |
| 2026-05-04 15:05 | 14.16491 | 51.64634 | 34821 ft | 491 kts | 354° |
| 2026-05-04 15:06 | 14.23304 | 51.63827 | 34810 ft | 492 kts | 354° |